Main page
METAR-TAF:

METAR-TAF

Airports :

Port Bouet Airport

Abidjan, Ivory coast

latitude: 05-15N, longitude: 003-56W, elevation: 7 m

Current weather observation

The report was made 26 minutes ago, at 23:00 UTC
Wind 4 kt from the West/Southwest
Temperature 27°C
Humidity 94%
Pressure 1013 hPa
Visibility 10 km or more
no clouds below 1500 m and no cumulonimbus

METAR: DIAP 212300Z 25004KT CAVOK 27/26 Q1013 NOSIG

Time: 23:26 (23:26 UTC)

Forecast

The report was made 6 hours and 26 minutes ago, at 17:00 UTC
Forecast valid from 21 at 18 UTC to 22 at 24 UTC
Wind 8 kt from the Southwest
Visibility 10 km or more
Scattered clouds at a height of 1200 ft
Probability 30% :
Temporary
from 21 at 22 UTC to 22 at 04 UTC
Visibility: 4000 m
Broken clouds at a height of 1200 ft
rain
Temporary
from 22 at 16 UTC to 22 at 20 UTC
Broken clouds at a height of 1200 ft

TAF: DIAP 211700Z 2118/2224 23008KT 9999 SCT012 PROB30 TEMPO 2122/2204 4000 RA BKN012 TEMPO 2216/2220 BKN012

Weather observations and forecasts of more than 4000 airports (METAR and TAF reports).

The available stations are represented by yellow and red dots on the map.

Hover mouse over dot to see the name of the station.

Then click to see weather observations and forecasts.

To change the map : click on the green buttons with a black cross to zoom in, on the green button with a dash to zoom out, or on the green arrows for adjacent maps.


METAR-TAF: